sensor_id;sensor_type;location;lat;lon;timestamp;pressure;altitude;pressure_sealevel;temperature;humidity
38227;BME280;24026;49.446;8.576;2023-07-22T00:00:25;100417.06;;;24.86;37.00
38227;BME280;24026;49.446;8.576;2023-07-22T00:02:46;100423.66;;;24.85;37.20
38227;BME280;24026;49.446;8.576;2023-07-22T00:05:07;100413.91;;;24.84;37.00
38227;BME280;24026;49.446;8.576;2023-07-22T00:07:27;100414.72;;;24.84;37.15
38227;BME280;24026;49.446;8.576;2023-07-22T00:09:48;100413.13;;;24.83;37.12
38227;BME280;24026;49.446;8.576;2023-07-22T00:12:10;100411.50;;;24.82;37.34
38227;BME280;24026;49.446;8.576;2023-07-22T00:14:31;100422.38;;;24.82;37.28
38227;BME280;24026;49.446;8.576;2023-07-22T00:16:51;100422.38;;;24.82;37.23
38227;BME280;24026;49.446;8.576;2023-07-22T00:19:11;100420.81;;;24.81;37.25
38227;BME280;24026;49.446;8.576;2023-07-22T00:21:34;100426.25;;;24.81;37.30
38227;BME280;24026;49.446;8.576;2023-07-22T00:23:54;100425.44;;;24.81;37.22
38227;BME280;24026;49.446;8.576;2023-07-22T00:26:15;100420.00;;;24.81;37.45
38227;BME280;24026;49.446;8.576;2023-07-22T00:28:35;100421.16;;;24.80;37.28
38227;BME280;24026;49.446;8.576;2023-07-22T00:30:56;100423.06;;;24.79;37.32
38227;BME280;24026;49.446;8.576;2023-07-22T00:33:17;100423.06;;;24.79;37.24
38227;BME280;24026;49.446;8.576;2023-07-22T00:35:37;100416.84;;;24.78;37.37
38227;BME280;24026;49.446;8.576;2023-07-22T00:38:01;100414.91;;;24.79;37.29
38227;BME280;24026;49.446;8.576;2023-07-22T00:40:22;100414.44;;;24.77;37.36
38227;BME280;24026;49.446;8.576;2023-07-22T00:42:43;100415.25;;;24.77;37.44
38227;BME280;24026;49.446;8.576;2023-07-22T00:45:04;100412.53;;;24.77;37.40
38227;BME280;24026;49.446;8.576;2023-07-22T00:47:24;100410.16;;;24.76;37.46
38227;BME280;24026;49.446;8.576;2023-07-22T00:49:47;100408.22;;;24.76;37.45
38227;BME280;24026;49.446;8.576;2023-07-22T00:52:08;100396.91;;;24.74;37.59
38227;BME280;24026;49.446;8.576;2023-07-22T00:54:30;100401.19;;;24.75;37.52
38227;BME280;24026;49.446;8.576;2023-07-22T00:56:51;100401.53;;;24.74;37.47
38227;BME280;24026;49.446;8.576;2023-07-22T00:59:12;100405.41;;;24.73;37.70
38227;BME280;24026;49.446;8.576;2023-07-22T01:01:32;100398.03;;;24.73;37.51
38227;BME280;24026;49.446;8.576;2023-07-22T01:03:53;100405.72;;;24.71;37.55
38227;BME280;24026;49.446;8.576;2023-07-22T01:06:14;100401.09;;;24.72;37.59
38227;BME280;24026;49.446;8.576;2023-07-22T01:08:34;100400.31;;;24.71;37.71
38227;BME280;24026;49.446;8.576;2023-07-22T01:10:55;100405.72;;;24.71;37.57
38227;BME280;24026;49.446;8.576;2023-07-22T01:13:15;100404.13;;;24.70;37.58
38227;BME280;24026;49.446;8.576;2023-07-22T01:15:36;100397.91;;;24.70;37.64
38227;BME280;24026;49.446;8.576;2023-07-22T01:17:58;100399.84;;;24.69;37.63
38227;BME280;24026;49.446;8.576;2023-07-22T01:20:21;100400.19;;;24.68;37.86
38227;BME280;24026;49.446;8.576;2023-07-22T01:22:48;100406.41;;;24.68;37.64
38227;BME280;24026;49.446;8.576;2023-07-22T01:25:10;100404.03;;;24.67;37.61
38227;BME280;24026;49.446;8.576;2023-07-22T01:27:30;100401.31;;;24.67;37.78
38227;BME280;24026;49.446;8.576;2023-07-22T01:29:51;100403.22;;;24.66;37.53
38227;BME280;24026;49.446;8.576;2023-07-22T01:32:12;100398.59;;;24.67;37.65
38227;BME280;24026;49.446;8.576;2023-07-22T01:34:32;100392.69;;;24.65;37.81
38227;BME280;24026;49.446;8.576;2023-07-22T01:36:52;100386.47;;;24.64;37.90
38227;BME280;24026;49.446;8.576;2023-07-22T01:39:14;100392.69;;;24.65;37.58
38227;BME280;24026;49.446;8.576;2023-07-22T01:41:35;100385.66;;;24.64;37.59
38227;BME280;24026;49.446;8.576;2023-07-22T01:43:55;100390.31;;;24.63;37.69
38227;BME280;24026;49.446;8.576;2023-07-22T01:46:15;100385.22;;;24.62;37.91
38227;BME280;24026;49.446;8.576;2023-07-22T01:48:36;100386.00;;;24.62;37.68
38227;BME280;24026;49.446;8.576;2023-07-22T01:50:57;100385.22;;;24.62;37.75
38227;BME280;24026;49.446;8.576;2023-07-22T01:53:17;100389.88;;;24.61;37.84
38227;BME280;24026;49.446;8.576;2023-07-22T01:55:38;100389.06;;;24.60;37.77
38227;BME280;24026;49.446;8.576;2023-07-22T01:57:58;100384.78;;;24.59;37.63
38227;BME280;24026;49.446;8.576;2023-07-22T02:00:19;100390.53;;;24.58;37.73
38227;BME280;24026;49.446;8.576;2023-07-22T02:02:41;100385.88;;;24.58;38.01
38227;BME280;24026;49.446;8.576;2023-07-22T02:05:02;100379.66;;;24.58;37.80
38227;BME280;24026;49.446;8.576;2023-07-22T02:07:22;100385.44;;;24.56;37.73
38227;BME280;24026;49.446;8.576;2023-07-22T02:09:46;100375.34;;;24.57;37.73
38227;BME280;24026;49.446;8.576;2023-07-22T02:12:07;100381.94;;;24.56;37.84
38227;BME280;24026;49.446;8.576;2023-07-22T02:14:27;100387.38;;;24.56;37.96
38227;BME280;24026;49.446;8.576;2023-07-22T02:16:48;100386.56;;;24.55;38.07
38227;BME280;24026;49.446;8.576;2023-07-22T02:19:08;100383.84;;;24.55;38.16
38227;BME280;24026;49.446;8.576;2023-07-22T02:21:29;100383.84;;;24.55;37.94
38227;BME280;24026;49.446;8.576;2023-07-22T02:23:50;100379.53;;;24.54;38.28
38227;BME280;24026;49.446;8.576;2023-07-22T02:26:10;100386.84;;;24.54;38.00
38227;BME280;24026;49.446;8.576;2023-07-22T02:28:30;100388.00;;;24.53;37.94
38227;BME280;24026;49.446;8.576;2023-07-22T02:30:52;100394.22;;;24.53;38.06
38227;BME280;24026;49.446;8.576;2023-07-22T02:33:13;100398.88;;;24.53;38.26
38227;BME280;24026;49.446;8.576;2023-07-22T02:35:34;100403.50;;;24.52;38.10
38227;BME280;24026;49.446;8.576;2023-07-22T02:37:54;100415.50;;;24.51;38.04
38227;BME280;24026;49.446;8.576;2023-07-22T02:40:15;100425.22;;;24.52;38.23
38227;BME280;24026;49.446;8.576;2023-07-22T02:42:35;100425.59;;;24.51;38.08
38227;BME280;24026;49.446;8.576;2023-07-22T02:44:56;100434.50;;;24.51;38.00
38227;BME280;24026;49.446;8.576;2023-07-22T02:47:16;100432.91;;;24.50;38.07
38227;BME280;24026;49.446;8.576;2023-07-22T02:49:37;100435.63;;;24.50;38.20
38227;BME280;24026;49.446;8.576;2023-07-22T02:51:57;100431.34;;;24.49;38.02
38227;BME280;24026;49.446;8.576;2023-07-22T02:54:17;100434.06;;;24.49;38.16
38227;BME280;24026;49.446;8.576;2023-07-22T02:56:38;100425.91;;;24.49;38.45
38227;BME280;24026;49.446;8.576;2023-07-22T02:58:58;100426.25;;;24.48;38.24
38227;BME280;24026;49.446;8.576;2023-07-22T03:01:19;100422.72;;;24.47;38.27
38227;BME280;24026;49.446;8.576;2023-07-22T03:03:39;100424.66;;;24.47;38.45
38227;BME280;24026;49.446;8.576;2023-07-22T03:06:01;100423.84;;;24.46;38.47
38227;BME280;24026;49.446;8.576;2023-07-22T03:08:21;100412.19;;;24.46;38.58
38227;BME280;24026;49.446;8.576;2023-07-22T03:10:42;100416.81;;;24.45;38.57
38227;BME280;24026;49.446;8.576;2023-07-22T03:13:07;100413.66;;;24.43;38.90
38227;BME280;24026;49.446;8.576;2023-07-22T03:15:27;100410.94;;;24.43;38.81
38227;BME280;24026;49.446;8.576;2023-07-22T03:17:48;100408.22;;;24.43;39.07
38227;BME280;24026;49.446;8.576;2023-07-22T03:20:10;100405.84;;;24.41;38.89
38227;BME280;24026;49.446;8.576;2023-07-22T03:22:34;100406.97;;;24.40;39.15
38227;BME280;24026;49.446;8.576;2023-07-22T03:24:55;100408.91;;;24.40;39.22
38227;BME280;24026;49.446;8.576;2023-07-22T03:27:15;100408.09;;;24.39;39.29
38227;BME280;24026;49.446;8.576;2023-07-22T03:29:38;100401.06;;;24.38;39.52
38227;BME280;24026;49.446;8.576;2023-07-22T03:31:58;100398.38;;;24.38;39.42
38227;BME280;24026;49.446;8.576;2023-07-22T03:34:20;100393.25;;;24.37;39.37
38227;BME280;24026;49.446;8.576;2023-07-22T03:36:40;100390.88;;;24.35;39.79
38227;BME280;24026;49.446;8.576;2023-07-22T03:39:01;100394.41;;;24.36;39.59
38227;BME280;24026;49.446;8.576;2023-07-22T03:41:21;100392.81;;;24.35;39.74
38227;BME280;24026;49.446;8.576;2023-07-22T03:43:42;100398.25;;;24.35;40.02
38227;BME280;24026;49.446;8.576;2023-07-22T03:46:03;100395.53;;;24.35;40.13
38227;BME280;24026;49.446;8.576;2023-07-22T03:48:24;100387.72;;;24.33;40.18
38227;BME280;24026;49.446;8.576;2023-07-22T03:50:44;100388.81;;;24.32;40.13
38227;BME280;24026;49.446;8.576;2023-07-22T03:53:05;100390.75;;;24.32;40.05
38227;BME280;24026;49.446;8.576;2023-07-22T03:55:25;100398.13;;;24.31;40.26
38227;BME280;24026;49.446;8.576;2023-07-22T03:57:45;100396.53;;;24.30;40.52
38227;BME280;24026;49.446;8.576;2023-07-22T04:00:06;100407.38;;;24.30;40.45
38227;BME280;24026;49.446;8.576;2023-07-22T04:02:30;100413.16;;;24.29;40.47
38227;BME280;24026;49.446;8.576;2023-07-22T04:04:55;100409.31;;;24.30;40.53
38227;BME280;24026;49.446;8.576;2023-07-22T04:07:15;100409.66;;;24.28;40.72
38227;BME280;24026;49.446;8.576;2023-07-22T04:09:36;100411.56;;;24.28;40.87
38227;BME280;24026;49.446;8.576;2023-07-22T04:11:56;100406.47;;;24.26;40.81
38227;BME280;24026;49.446;8.576;2023-07-22T04:14:16;100404.88;;;24.25;40.85
38227;BME280;24026;49.446;8.576;2023-07-22T04:16:37;100403.31;;;24.24;40.96
38227;BME280;24026;49.446;8.576;2023-07-22T04:18:57;100406.03;;;24.24;40.80
38227;BME280;24026;49.446;8.576;2023-07-22T04:21:17;100407.91;;;24.23;41.06
38227;BME280;24026;49.446;8.576;2023-07-22T04:23:38;100416.06;;;24.23;41.34
38227;BME280;24026;49.446;8.576;2023-07-22T04:25:58;100400.94;;;24.22;41.34
38227;BME280;24026;49.446;8.576;2023-07-22T04:28:19;100403.16;;;24.20;41.47
38227;BME280;24026;49.446;8.576;2023-07-22T04:30:39;100390.41;;;24.21;41.65
38227;BME280;24026;49.446;8.576;2023-07-22T04:33:00;100396.16;;;24.19;41.42
38227;BME280;24026;49.446;8.576;2023-07-22T04:35:20;100395.34;;;24.19;41.77
38227;BME280;24026;49.446;8.576;2023-07-22T04:37:41;100408.91;;;24.19;41.72
38227;BME280;24026;49.446;8.576;2023-07-22T04:40:02;100397.28;;;24.18;41.51
38227;BME280;24026;49.446;8.576;2023-07-22T04:42:26;100395.34;;;24.19;41.94
38227;BME280;24026;49.446;8.576;2023-07-22T04:44:47;100398.41;;;24.17;41.81
38227;BME280;24026;49.446;8.576;2023-07-22T04:47:08;100405.41;;;24.18;41.85
38227;BME280;24026;49.446;8.576;2023-07-22T04:49:29;100407.69;;;24.16;41.92
38227;BME280;24026;49.446;8.576;2023-07-22T04:51:49;100402.25;;;24.16;42.07
38227;BME280;24026;49.446;8.576;2023-07-22T04:54:10;100408.47;;;24.17;41.95
38227;BME280;24026;49.446;8.576;2023-07-22T04:56:30;100411.19;;;24.17;42.31
38227;BME280;24026;49.446;8.576;2023-07-22T04:58:51;100406.88;;;24.16;42.06
38227;BME280;24026;49.446;8.576;2023-07-22T05:01:11;100407.69;;;24.16;42.34
38227;BME280;24026;49.446;8.576;2023-07-22T05:03:32;100406.06;;;24.15;42.10
38227;BME280;24026;49.446;8.576;2023-07-22T05:05:52;100411.50;;;24.15;42.33
38227;BME280;24026;49.446;8.576;2023-07-22T05:08:13;100406.06;;;24.15;42.25
38227;BME280;24026;49.446;8.576;2023-07-22T05:10:33;100407.22;;;24.14;42.49
38227;BME280;24026;49.446;8.576;2023-07-22T05:12:54;100406.41;;;24.14;42.60
38227;BME280;24026;49.446;8.576;2023-07-22T05:15:14;100411.84;;;24.14;42.75
38227;BME280;24026;49.446;8.576;2023-07-22T05:17:35;100422.69;;;24.14;42.63
38227;BME280;24026;49.446;8.576;2023-07-22T05:19:55;100419.97;;;24.14;42.81
38227;BME280;24026;49.446;8.576;2023-07-22T05:22:16;100425.75;;;24.12;42.82
38227;BME280;24026;49.446;8.576;2023-07-22T05:24:36;100421.13;;;24.13;43.01
38227;BME280;24026;49.446;8.576;2023-07-22T05:26:57;100423.84;;;24.13;42.93
38227;BME280;24026;49.446;8.576;2023-07-22T05:29:17;100428.44;;;24.12;43.01
38227;BME280;24026;49.446;8.576;2023-07-22T05:31:37;100424.94;;;24.12;42.97
38227;BME280;24026;49.446;8.576;2023-07-22T05:33:58;100424.16;;;24.11;43.06
38227;BME280;24026;49.446;8.576;2023-07-22T05:36:18;100432.31;;;24.11;43.02
38227;BME280;24026;49.446;8.576;2023-07-22T05:38:39;100434.25;;;24.11;43.13
38227;BME280;24026;49.446;8.576;2023-07-22T05:40:59;100432.31;;;24.11;43.33
38227;BME280;24026;49.446;8.576;2023-07-22T05:43:21;100433.44;;;24.10;43.34
38227;BME280;24026;49.446;8.576;2023-07-22T05:45:41;100433.44;;;24.10;43.57
38227;BME280;24026;49.446;8.576;2023-07-22T05:48:02;100433.44;;;24.10;43.46
38227;BME280;24026;49.446;8.576;2023-07-22T05:50:22;100430.72;;;24.10;43.38
38227;BME280;24026;49.446;8.576;2023-07-22T05:52:43;100432.63;;;24.10;43.54
38227;BME280;24026;49.446;8.576;2023-07-22T05:55:04;100436.13;;;24.10;43.58
38227;BME280;24026;49.446;8.576;2023-07-22T05:57:24;100433.44;;;24.10;43.83
38227;BME280;24026;49.446;8.576;2023-07-22T05:59:45;100431.53;;;24.11;43.50
38227;BME280;24026;49.446;8.576;2023-07-22T06:02:07;100428.00;;;24.10;43.75
38227;BME280;24026;49.446;8.576;2023-07-22T06:04:28;100424.50;;;24.10;43.64
38227;BME280;24026;49.446;8.576;2023-07-22T06:06:48;100428.00;;;24.10;43.70
38227;BME280;24026;49.446;8.576;2023-07-22T06:09:09;100429.13;;;24.09;43.56
38227;BME280;24026;49.446;8.576;2023-07-22T06:11:29;100441.56;;;24.10;43.72
38227;BME280;24026;49.446;8.576;2023-07-22T06:13:50;100433.44;;;24.10;43.96
38227;BME280;24026;49.446;8.576;2023-07-22T06:16:10;100433.44;;;24.10;43.78
38227;BME280;24026;49.446;8.576;2023-07-22T06:18:30;100436.94;;;24.11;43.73
38227;BME280;24026;49.446;8.576;2023-07-22T06:20:51;100440.78;;;24.10;43.94
38227;BME280;24026;49.446;8.576;2023-07-22T06:23:11;100451.31;;;24.11;43.74
38227;BME280;24026;49.446;8.576;2023-07-22T06:25:32;100450.53;;;24.11;43.83
38227;BME280;24026;49.446;8.576;2023-07-22T06:27:52;100454.03;;;24.11;43.81
38227;BME280;24026;49.446;8.576;2023-07-22T06:30:14;100448.59;;;24.11;43.93
38227;BME280;24026;49.446;8.576;2023-07-22T06:32:37;100453.25;;;24.11;43.80
38227;BME280;24026;49.446;8.576;2023-07-22T06:34:57;100456.75;;;24.11;43.83
38227;BME280;24026;49.446;8.576;2023-07-22T06:37:18;100454.03;;;24.11;43.68
38227;BME280;24026;49.446;8.576;2023-07-22T06:39:38;100464.88;;;24.11;43.88
38227;BME280;24026;49.446;8.576;2023-07-22T06:41:59;100466.47;;;24.12;43.98
38227;BME280;24026;49.446;8.576;2023-07-22T06:44:19;100465.66;;;24.12;43.82
38227;BME280;24026;49.446;8.576;2023-07-22T06:46:41;100464.56;;;24.13;44.03
38227;BME280;24026;49.446;8.576;2023-07-22T06:49:01;100468.06;;;24.13;43.84
38227;BME280;24026;49.446;8.576;2023-07-22T06:51:21;100469.97;;;24.13;43.85
38227;BME280;24026;49.446;8.576;2023-07-22T06:53:42;100467.28;;;24.13;43.83
38227;BME280;24026;49.446;8.576;2023-07-22T06:56:02;100471.88;;;24.12;43.87
38227;BME280;24026;49.446;8.576;2023-07-22T06:58:23;100465.34;;;24.13;43.70
38227;BME280;24026;49.446;8.576;2023-07-22T07:00:43;100485.13;;;24.14;43.75
38227;BME280;24026;49.446;8.576;2023-07-22T07:03:03;100478.91;;;24.13;43.73
38227;BME280;24026;49.446;8.576;2023-07-22T07:05:24;100478.91;;;24.13;43.84
38227;BME280;24026;49.446;8.576;2023-07-22T07:07:44;100482.41;;;24.14;43.75
38227;BME280;24026;49.446;8.576;2023-07-22T07:10:05;100478.91;;;24.13;44.05
38227;BME280;24026;49.446;8.576;2023-07-22T07:12:26;100482.41;;;24.14;43.90
38227;BME280;24026;49.446;8.576;2023-07-22T07:14:50;100479.69;;;24.14;43.97
38227;BME280;24026;49.446;8.576;2023-07-22T07:17:10;100485.94;;;24.14;43.77
38227;BME280;24026;49.446;8.576;2023-07-22T07:19:30;100483.22;;;24.14;43.92
38227;BME280;24026;49.446;8.576;2023-07-22T07:21:51;100481.31;;;24.15;43.94
38227;BME280;24026;49.446;8.576;2023-07-22T07:24:11;100484.81;;;24.15;43.82
38227;BME280;24026;49.446;8.576;2023-07-22T07:26:32;100488.34;;;24.16;44.06
38227;BME280;24026;49.446;8.576;2023-07-22T07:28:52;100482.56;;;24.17;43.79
38227;BME280;24026;49.446;8.576;2023-07-22T07:31:12;100486.06;;;24.18;43.92
38227;BME280;24026;49.446;8.576;2023-07-22T07:33:33;100484.16;;;24.18;43.77
38227;BME280;24026;49.446;8.576;2023-07-22T07:35:54;100484.94;;;24.19;43.81
38227;BME280;24026;49.446;8.576;2023-07-22T07:38:14;100488.47;;;24.19;43.83
38227;BME280;24026;49.446;8.576;2023-07-22T07:40:35;100491.19;;;24.19;43.83
38227;BME280;24026;49.446;8.576;2023-07-22T07:42:55;100481.44;;;24.18;43.69
38227;BME280;24026;49.446;8.576;2023-07-22T07:45:15;100487.66;;;24.19;43.88
38227;BME280;24026;49.446;8.576;2023-07-22T07:47:36;100485.75;;;24.19;43.63
38227;BME280;24026;49.446;8.576;2023-07-22T07:49:56;100488.91;;;24.21;43.76
38227;BME280;24026;49.446;8.576;2023-07-22T07:52:17;100495.13;;;24.22;43.65
38227;BME280;24026;49.446;8.576;2023-07-22T07:54:37;100483.50;;;24.21;43.70
38227;BME280;24026;49.446;8.576;2023-07-22T07:56:58;100488.59;;;24.23;43.65
38227;BME280;24026;49.446;8.576;2023-07-22T07:59:18;100483.94;;;24.23;43.57
38227;BME280;24026;49.446;8.576;2023-07-22T08:01:38;100491.75;;;24.25;43.56
38227;BME280;24026;49.446;8.576;2023-07-22T08:04:01;100491.75;;;24.25;43.56
38227;BME280;24026;49.446;8.576;2023-07-22T08:06:22;100483.63;;;24.25;43.31
38227;BME280;24026;49.446;8.576;2023-07-22T08:08:42;100487.94;;;24.26;43.55
38227;BME280;24026;49.446;8.576;2023-07-22T08:11:06;100496.53;;;24.28;43.54
38227;BME280;24026;49.446;8.576;2023-07-22T08:13:28;100489.16;;;24.29;43.68
38227;BME280;24026;49.446;8.576;2023-07-22T08:15:51;100491.56;;;24.30;43.60
38227;BME280;24026;49.446;8.576;2023-07-22T08:18:12;100497.00;;;24.30;43.47
38227;BME280;24026;49.446;8.576;2023-07-22T08:20:33;100486.13;;;24.30;43.38
38227;BME280;24026;49.446;8.576;2023-07-22T08:22:53;100492.84;;;24.33;43.22
38227;BME280;24026;49.446;8.576;2023-07-22T08:25:13;100492.00;;;24.32;43.11
38227;BME280;24026;49.446;8.576;2023-07-22T08:27:34;100489.78;;;24.34;43.37
38227;BME280;24026;49.446;8.576;2023-07-22T08:29:54;100489.78;;;24.34;43.65
38227;BME280;24026;49.446;8.576;2023-07-22T08:32:15;100485.94;;;24.35;43.25
38227;BME280;24026;49.446;8.576;2023-07-22T08:34:35;100493.75;;;24.37;43.30
38227;BME280;24026;49.446;8.576;2023-07-22T08:36:55;100492.97;;;24.36;43.22
38227;BME280;24026;49.446;8.576;2023-07-22T08:39:16;100483.69;;;24.37;43.13
38227;BME280;24026;49.446;8.576;2023-07-22T08:41:37;100485.25;;;24.38;43.15
38227;BME280;24026;49.446;8.576;2023-07-22T08:43:59;100487.97;;;24.38;43.26
38227;BME280;24026;49.446;8.576;2023-07-22T08:46:22;100486.53;;;24.41;43.11
38227;BME280;24026;49.446;8.576;2023-07-22T08:48:46;100485.38;;;24.42;43.10
38227;BME280;24026;49.446;8.576;2023-07-22T08:51:12;100484.28;;;24.43;43.23
38227;BME280;24026;49.446;8.576;2023-07-22T08:53:33;100483.16;;;24.44;42.90
38227;BME280;24026;49.446;8.576;2023-07-22T08:55:54;100483.94;;;24.45;43.01
38227;BME280;24026;49.446;8.576;2023-07-22T08:58:15;100479.75;;;24.47;43.04
38227;BME280;24026;49.446;8.576;2023-07-22T09:00:37;100478.63;;;24.48;43.20
38227;BME280;24026;49.446;8.576;2023-07-22T09:02:58;100474.81;;;24.49;42.91
38227;BME280;24026;49.446;8.576;2023-07-22T09:05:20;100469.81;;;24.51;42.92
38227;BME280;24026;49.446;8.576;2023-07-22T09:07:41;100475.72;;;24.53;42.83
38227;BME280;24026;49.446;8.576;2023-07-22T09:10:02;100470.28;;;24.53;42.80
38227;BME280;24026;49.446;8.576;2023-07-22T09:12:23;100465.31;;;24.55;42.46
38227;BME280;24026;49.446;8.576;2023-07-22T09:14:48;100473.16;;;24.57;42.60
38227;BME280;24026;49.446;8.576;2023-07-22T09:17:10;100468.53;;;24.57;42.71
38227;BME280;24026;49.446;8.576;2023-07-22T09:19:31;100463.56;;;24.59;42.72
38227;BME280;24026;49.446;8.576;2023-07-22T09:21:51;100466.72;;;24.62;42.58
38227;BME280;24026;49.446;8.576;2023-07-22T09:24:23;100460.94;;;24.63;42.58
38227;BME280;24026;49.446;8.576;2023-07-22T09:26:43;100459.47;;;24.66;42.81
38227;BME280;24026;49.446;8.576;2023-07-22T09:29:04;100452.59;;;24.68;42.59
38227;BME280;24026;49.446;8.576;2023-07-22T09:31:26;100460.06;;;24.71;42.46
38227;BME280;24026;49.446;8.576;2023-07-22T09:33:48;100452.38;;;24.73;42.51
38227;BME280;24026;49.446;8.576;2023-07-22T09:36:10;100451.72;;;24.76;42.70
38227;BME280;24026;49.446;8.576;2023-07-22T09:38:31;100449.44;;;24.78;42.36
38227;BME280;24026;49.446;8.576;2023-07-22T09:40:52;100448.00;;;24.81;42.37
38227;BME280;24026;49.446;8.576;2023-07-22T09:43:12;100441.88;;;24.84;42.29
38227;BME280;24026;49.446;8.576;2023-07-22T09:45:33;100439.63;;;24.86;42.20
38227;BME280;24026;49.446;8.576;2023-07-22T09:47:55;100436.56;;;24.88;42.28
38227;BME280;24026;49.446;8.576;2023-07-22T09:50:26;100436.22;;;24.89;42.11
38227;BME280;24026;49.446;8.576;2023-07-22T09:52:53;100437.13;;;24.93;42.06
38227;BME280;24026;49.446;8.576;2023-07-22T09:55:16;100437.59;;;24.95;41.63
38227;BME280;24026;49.446;8.576;2023-07-22T09:57:43;100429.91;;;24.98;41.85
38227;BME280;24026;49.446;8.576;2023-07-22T10:00:05;100431.47;;;24.99;41.79
38227;BME280;24026;49.446;8.576;2023-07-22T10:02:29;100427.31;;;25.01;41.77
38227;BME280;24026;49.446;8.576;2023-07-22T10:04:51;100432.06;;;25.04;41.66
38227;BME280;24026;49.446;8.576;2023-07-22T10:07:14;100420.81;;;25.06;41.72
38227;BME280;24026;49.446;8.576;2023-07-22T10:09:37;100416.31;;;25.10;41.61
38227;BME280;24026;49.446;8.576;2023-07-22T10:11:58;100415.19;;;25.11;41.55
38227;BME280;24026;49.446;8.576;2023-07-22T10:14:19;100414.50;;;25.14;41.35
38227;BME280;24026;49.446;8.576;2023-07-22T10:16:39;100407.94;;;25.15;41.45
38227;BME280;24026;49.446;8.576;2023-07-22T10:19:02;100411.09;;;25.17;41.32
38227;BME280;24026;49.446;8.576;2023-07-22T10:21:24;100414.25;;;25.19;41.14
38227;BME280;24026;49.446;8.576;2023-07-22T10:23:46;100402.72;;;25.22;41.16
38227;BME280;24026;49.446;8.576;2023-07-22T10:26:08;100398.88;;;25.23;40.80
38227;BME280;24026;49.446;8.576;2023-07-22T10:28:30;100400.09;;;25.26;40.96
38227;BME280;24026;49.446;8.576;2023-07-22T10:30:52;100395.16;;;25.28;40.96
38227;BME280;24026;49.446;8.576;2023-07-22T10:33:13;100403.00;;;25.29;40.68
38227;BME280;24026;49.446;8.576;2023-07-22T10:37:54;100382.47;;;25.32;40.65
38227;BME280;24026;49.446;8.576;2023-07-22T10:40:18;100381.00;;;25.35;40.62
38227;BME280;24026;49.446;8.576;2023-07-22T10:42:39;100377.13;;;25.36;40.62
38227;BME280;24026;49.446;8.576;2023-07-22T10:45:01;100372.94;;;25.38;40.81
38227;BME280;24026;49.446;8.576;2023-07-22T10:47:35;100377.59;;;25.38;40.42
38227;BME280;24026;49.446;8.576;2023-07-22T10:50:05;100380.75;;;25.40;40.67
38227;BME280;24026;49.446;8.576;2023-07-22T10:52:44;100383.81;;;25.38;40.54
38227;BME280;24026;49.446;8.576;2023-07-22T10:55:14;100376.09;;;25.40;40.29
38227;BME280;24026;49.446;8.576;2023-07-22T10:57:47;100375.78;;;25.42;40.32
38227;BME280;24026;49.446;8.576;2023-07-22T11:00:17;100384.72;;;25.42;40.30
38227;BME280;24026;49.446;8.576;2023-07-22T11:02:40;100384.38;;;25.44;40.15
38227;BME280;24026;49.446;8.576;2023-07-22T11:05:02;100381.31;;;25.45;40.42
38227;BME280;24026;49.446;8.576;2023-07-22T11:07:33;100384.81;;;25.46;40.18
38227;BME280;24026;49.446;8.576;2023-07-22T11:09:54;100379.38;;;25.46;40.57
38227;BME280;24026;49.446;8.576;2023-07-22T11:12:36;100382.47;;;25.44;40.29
38227;BME280;24026;49.446;8.576;2023-07-22T11:15:04;100375.53;;;25.47;40.07
38227;BME280;24026;49.446;8.576;2023-07-22T11:17:30;100367.81;;;25.49;40.16
38227;BME280;24026;49.446;8.576;2023-07-22T11:19:51;100363.53;;;25.48;39.99
38227;BME280;24026;49.446;8.576;2023-07-22T11:22:11;100358.88;;;25.48;40.11
38227;BME280;24026;49.446;8.576;2023-07-22T11:24:36;100357.75;;;25.49;40.27
38227;BME280;24026;49.446;8.576;2023-07-22T11:26:56;100349.59;;;25.49;39.80
38227;BME280;24026;49.446;8.576;2023-07-22T11:29:17;100356.59;;;25.50;40.03
38227;BME280;24026;49.446;8.576;2023-07-22T11:31:48;100350.38;;;25.50;39.91
38227;BME280;24026;49.446;8.576;2023-07-22T11:34:09;100352.31;;;25.49;39.88
38227;BME280;24026;49.446;8.576;2023-07-22T11:36:31;100346.53;;;25.51;39.79
38227;BME280;24026;49.446;8.576;2023-07-22T11:38:52;100352.75;;;25.51;39.57
38227;BME280;24026;49.446;8.576;2023-07-22T11:41:15;100355.47;;;25.51;39.40
38227;BME280;24026;49.446;8.576;2023-07-22T11:43:37;100358.19;;;25.51;39.46
38227;BME280;24026;49.446;8.576;2023-07-22T11:45:57;100361.69;;;25.52;39.76
38227;BME280;24026;49.446;8.576;2023-07-22T11:48:18;100352.41;;;25.53;39.38
38227;BME280;24026;49.446;8.576;2023-07-22T11:50:39;100343.91;;;25.55;39.37
38227;BME280;24026;49.446;8.576;2023-07-22T11:53:00;100338.13;;;25.56;39.29
38227;BME280;24026;49.446;8.576;2023-07-22T11:55:22;100339.69;;;25.57;39.32
38227;BME280;24026;49.446;8.576;2023-07-22T11:57:54;100344.34;;;25.57;39.18
38227;BME280;24026;49.446;8.576;2023-07-22T12:00:15;100340.50;;;25.58;38.94
38227;BME280;24026;49.446;8.576;2023-07-22T12:02:35;100334.69;;;25.59;38.98
38227;BME280;24026;49.446;8.576;2023-07-22T12:05:04;100340.13;;;25.59;39.11
38227;BME280;24026;49.446;8.576;2023-07-22T12:07:29;100342.50;;;25.61;39.02
38227;BME280;24026;49.446;8.576;2023-07-22T12:09:51;100339.78;;;25.61;39.14
38227;BME280;24026;49.446;8.576;2023-07-22T12:12:14;100343.31;;;25.61;39.14
38227;BME280;24026;49.446;8.576;2023-07-22T12:14:35;100334.00;;;25.62;38.85
38227;BME280;24026;49.446;8.576;2023-07-22T12:16:56;100332.88;;;25.63;39.04
38227;BME280;24026;49.446;8.576;2023-07-22T12:19:17;100322.78;;;25.64;38.73
38227;BME280;24026;49.446;8.576;2023-07-22T12:21:38;100319.72;;;25.65;39.23